Terminal Aerodrome Forecast
Issued by NWS Sioux Falls, SD

Home | Current Version | Previous Version | Text Only | Print | Product List | Glossary On
Versions: 1 2 3 4 5 6 7 8 9 10 11 12 13 14 15 16 17 18 19 20 21 22 23 24 25 26 27 28
000
FTUS43 KFSD 170520
TAFSUX
TAF
KSUX 170520Z 1706/1806 17012KT P6SM FEW250 WS012/20040KT
     FM171000 18010KT P6SM SCT130
     FM171500 18014G21KT P6SM VCSH SCT060
     FM172100 19016G24KT 6SM -SHRA VCTS BKN060CB
     FM180200 30007KT 6SM SHRA VCTS BKN060CB=

USA.gov is the U.S. government's official web portal to all federal, state and local government web resources and services.